createdAt,value
2018-06-21T07:10:52.770Z,25.20
2018-06-21T07:13:20.854Z,25.20
2018-06-21T07:15:50.122Z,25.30
2018-06-21T07:18:20.834Z,25.20
2018-06-21T07:20:48.384Z,25.20
2018-06-21T07:25:43.310Z,25.00
2018-06-21T07:30:41.175Z,25.10
2018-06-21T07:33:08.686Z,25.10
2018-06-21T07:35:36.172Z,25.10
2018-06-21T07:38:03.705Z,25.20
2018-06-21T07:40:31.195Z,25.30
2018-06-21T07:42:58.739Z,25.30
2018-06-21T07:45:28.260Z,25.30
2018-06-21T07:47:55.723Z,25.30
2018-06-21T07:50:23.242Z,25.30
2018-06-21T07:52:50.725Z,25.40
2018-06-21T07:55:18.247Z,25.50
2018-06-21T07:57:45.726Z,25.60
2018-06-21T08:00:14.962Z,25.60
2018-06-21T08:02:42.423Z,25.60
2018-06-21T08:05:09.941Z,25.60
2018-06-21T08:07:37.578Z,25.60
2018-06-21T08:10:05.084Z,25.60
2018-06-21T08:12:32.623Z,25.50
2018-06-21T08:15:00.119Z,25.50
2018-06-21T08:17:27.650Z,25.40
2018-06-21T08:19:55.189Z,25.40
2018-06-21T08:22:22.678Z,25.40
2018-06-21T08:24:50.198Z,25.30
2018-06-21T08:27:17.690Z,25.30
2018-06-21T08:29:45.181Z,25.20
2018-06-21T08:32:12.697Z,25.20
2018-06-21T08:34:40.225Z,25.30
2018-06-21T08:37:07.742Z,25.20
2018-06-21T08:39:35.334Z,25.00
2018-06-21T08:42:02.865Z,25.00
2018-06-21T08:44:30.374Z,25.00
2018-06-21T08:46:57.874Z,25.00
2018-06-21T08:49:25.390Z,25.00
2018-06-21T08:51:52.883Z,25.00
2018-06-21T08:54:20.418Z,25.00
2018-06-21T08:56:47.942Z,24.90
2018-06-21T08:59:15.915Z,24.70
2018-06-21T09:01:43.470Z,24.80
2018-06-21T09:04:10.960Z,24.90
2018-06-21T09:06:38.448Z,25.00
2018-06-21T09:09:07.599Z,25.00
2018-06-21T09:11:35.132Z,25.00
2018-06-21T09:14:02.666Z,25.10
2018-06-21T09:16:30.257Z,25.20
2018-06-21T09:18:58.615Z,25.40
2018-06-21T09:21:27.344Z,25.50
2018-06-21T09:23:54.999Z,25.60
2018-06-21T09:26:22.479Z,25.80
2018-06-21T09:28:50.006Z,26.00
2018-06-21T09:31:18.214Z,26.10
2018-06-21T09:33:45.746Z,26.20
2018-06-21T09:36:13.566Z,26.20
2018-06-21T09:38:46.705Z,26.00
2018-06-21T09:41:19.887Z,25.90
2018-06-21T09:44:03.829Z,25.70
2018-06-21T09:46:33.870Z,25.70
2018-06-21T09:48:53.848Z,25.70
2018-06-21T09:51:21.462Z,25.90
2018-06-21T09:56:16.574Z,26.40
2018-06-21T09:58:44.347Z,26.70
2018-06-21T10:01:11.866Z,27.00
2018-06-21T10:03:39.362Z,27.00
2018-06-21T10:06:06.878Z,27.10
2018-06-21T10:08:34.469Z,27.10
2018-06-21T10:11:01.975Z,26.90
2018-06-21T10:13:29.463Z,26.80
2018-06-21T10:15:57.055Z,26.70
2018-06-21T10:18:24.594Z,26.70
2018-06-21T10:20:52.099Z,26.80
2018-06-21T10:23:19.615Z,26.90
2018-06-21T10:25:47.133Z,26.90
2018-06-21T10:28:17.205Z,27.00
2018-06-21T10:30:44.707Z,26.90
2018-06-21T10:33:12.267Z,26.80
2018-06-21T10:35:39.770Z,26.80
2018-06-21T10:38:07.259Z,26.60
2018-06-21T10:43:02.186Z,26.50
2018-06-21T10:45:29.694Z,26.50
2018-06-21T10:47:57.174Z,26.50
2018-06-21T10:50:24.667Z,26.60
2018-06-21T10:52:52.134Z,26.80
2018-06-21T10:55:19.672Z,26.60
2018-06-21T10:57:47.142Z,26.60
2018-06-21T11:00:14.685Z,26.70
2018-06-21T11:02:42.202Z,26.80
2018-06-21T11:05:09.710Z,26.90
2018-06-21T11:07:37.360Z,26.90
2018-06-21T11:10:04.944Z,26.80
2018-06-21T11:12:32.459Z,26.80
2018-06-21T11:14:59.988Z,26.70
2018-06-21T11:17:27.490Z,26.70
2018-06-21T11:19:55.971Z,26.60
2018-06-21T11:24:51.344Z,26.70
2018-06-21T11:27:18.815Z,26.60
2018-06-21T11:29:46.339Z,26.50
2018-06-21T11:32:13.883Z,26.60
2018-06-21T11:34:41.430Z,26.80
2018-06-21T11:37:08.929Z,26.90
2018-06-21T11:39:36.490Z,27.00
2018-06-21T11:42:03.992Z,27.30
2018-06-21T11:44:31.502Z,27.50
2018-06-21T11:46:59.075Z,27.60
2018-06-21T11:49:26.559Z,27.70
2018-06-21T11:51:54.054Z,27.90
2018-06-21T11:54:21.605Z,28.00
2018-06-21T11:56:49.138Z,28.10
2018-06-21T11:59:16.738Z,28.10
2018-06-21T12:01:44.357Z,27.90
2018-06-21T12:04:11.830Z,27.80
2018-06-21T12:06:39.321Z,27.90
2018-06-21T12:09:08.534Z,28.00
2018-06-21T12:11:36.020Z,28.10
2018-06-21T12:14:03.637Z,28.20
2018-06-21T12:16:31.186Z,28.40
2018-06-21T12:18:58.738Z,28.50
2018-06-21T12:23:53.687Z,28.60
2018-06-21T12:26:21.214Z,28.60
2018-06-21T12:28:48.717Z,28.70
2018-06-21T12:31:16.214Z,28.90
2018-06-21T12:33:43.726Z,28.80
2018-06-21T12:36:11.223Z,28.80
2018-06-21T12:38:38.714Z,28.90
2018-06-21T12:41:06.274Z,28.60
2018-06-21T12:43:33.803Z,28.00
2018-06-21T12:46:01.301Z,27.70
2018-06-21T12:48:28.825Z,27.50
2018-06-21T12:50:56.336Z,27.60
2018-06-21T12:53:23.907Z,27.70
2018-06-21T12:55:52.118Z,27.80
2018-06-21T12:58:20.294Z,28.00
2018-06-21T13:05:42.634Z,27.60
2018-06-21T13:08:10.299Z,27.60
2018-06-21T13:12:22.558Z,27.80
2018-06-21T13:14:51.068Z,27.90
2018-06-21T13:17:19.062Z,27.90
2018-06-21T13:19:46.791Z,27.80
2018-06-21T13:22:14.290Z,27.50
2018-06-21T13:24:41.922Z,27.50
2018-06-21T13:27:09.459Z,27.50
2018-06-21T13:29:37.918Z,27.20
2018-06-21T13:32:05.410Z,27.30
2018-06-21T13:34:33.023Z,27.50
2018-06-21T13:37:01.402Z,27.90
2018-06-21T13:39:28.955Z,28.20
2018-06-21T13:41:56.449Z,28.40
2018-06-21T13:44:23.958Z,28.40
2018-06-21T13:46:51.592Z,28.20
2018-06-21T13:49:19.122Z,27.90
2018-06-21T13:51:46.606Z,27.60
2018-06-21T13:54:14.119Z,27.30
2018-06-21T13:56:41.649Z,27.00
2018-06-21T13:59:09.185Z,26.70
2018-06-21T14:01:36.734Z,26.50
2018-06-21T14:04:04.249Z,26.30
2018-06-21T14:06:31.777Z,26.10
2018-06-21T14:08:59.297Z,26.10
2018-06-21T14:11:26.859Z,25.70
2018-06-21T14:13:56.563Z,25.40
2018-06-21T14:16:24.244Z,25.10
2018-06-21T14:18:51.801Z,24.70
2018-06-21T14:21:19.347Z,24.60
2018-06-21T14:23:47.757Z,24.80
2018-06-21T14:26:15.974Z,24.90
2018-06-21T14:28:43.503Z,25.10
2018-06-21T14:31:10.999Z,25.30
2018-06-21T14:33:38.531Z,25.40
2018-06-21T14:36:06.015Z,25.50
2018-06-21T14:41:14.647Z,25.70
2018-06-21T14:43:43.280Z,25.60
2018-06-21T14:46:11.546Z,25.60
2018-06-21T14:48:39.061Z,25.50
2018-06-21T14:51:06.603Z,25.60
2018-06-21T14:53:34.150Z,25.50
2018-06-21T14:56:01.716Z,25.20
2018-06-21T14:58:29.203Z,25.10
2018-06-21T15:00:57.902Z,24.90
2018-06-21T15:03:25.407Z,24.90
2018-06-21T15:05:52.939Z,24.70
2018-06-21T15:08:20.514Z,24.60
2018-06-21T15:10:48.040Z,24.60
2018-06-21T15:13:15.559Z,24.60
2018-06-21T15:15:43.045Z,24.60
2018-06-21T15:20:38.098Z,24.80
2018-06-21T15:23:05.904Z,24.90
2018-06-21T15:25:33.432Z,24.60
2018-06-21T15:28:00.975Z,24.60
2018-06-21T15:30:28.554Z,24.70
2018-06-21T15:32:56.086Z,24.70
2018-06-21T15:35:23.663Z,24.60
2018-06-21T15:37:51.193Z,24.70
2018-06-21T15:42:46.255Z,24.50
2018-06-21T15:45:14.298Z,24.40
2018-06-21T15:47:41.778Z,24.10
2018-06-21T15:50:09.316Z,23.90
2018-06-21T15:52:36.910Z,23.80
2018-06-21T15:55:04.480Z,23.70
2018-06-21T15:57:32.071Z,23.60
2018-06-21T15:59:59.572Z,23.40
2018-06-21T16:02:27.154Z,23.30
2018-06-21T16:04:54.735Z,23.50
2018-06-21T16:07:22.330Z,23.50
2018-06-21T16:09:49.839Z,23.50
2018-06-21T16:12:17.380Z,23.60
2018-06-21T16:14:44.946Z,23.70
2018-06-21T16:17:12.473Z,23.80
2018-06-21T16:19:39.995Z,23.60
2018-06-21T16:24:34.998Z,23.40
2018-06-21T16:27:02.559Z,23.30
2018-06-21T16:29:30.094Z,23.20
2018-06-21T16:31:57.633Z,23.00
2018-06-21T16:34:25.147Z,23.00
2018-06-21T16:36:52.631Z,22.80
2018-06-21T16:39:20.203Z,22.60
2018-06-21T16:41:47.722Z,22.60
2018-06-21T16:44:15.255Z,22.60
2018-06-21T16:46:42.789Z,22.60
2018-06-21T16:49:10.370Z,22.60
2018-06-21T16:51:37.904Z,22.60
2018-06-21T16:54:05.532Z,22.60
2018-06-21T16:56:33.173Z,22.70
2018-06-21T16:59:00.739Z,22.70
2018-06-21T17:01:28.322Z,22.70
2018-06-21T17:03:55.881Z,22.50
2018-06-21T17:06:23.474Z,22.50
2018-06-21T17:08:53.782Z,22.40
2018-06-21T17:11:22.113Z,22.30
2018-06-21T17:13:49.666Z,22.20
2018-06-21T17:16:17.184Z,22.10
2018-06-21T17:18:44.713Z,22.10
2018-06-21T17:21:12.297Z,21.90
2018-06-21T17:23:39.859Z,21.80
2018-06-21T17:26:07.495Z,21.70
2018-06-21T17:28:35.009Z,21.70
2018-06-21T17:31:02.565Z,21.70
2018-06-21T17:33:30.159Z,21.70
2018-06-21T17:40:52.704Z,21.70
2018-06-21T17:43:20.294Z,21.70
2018-06-21T17:50:42.921Z,21.40
2018-06-21T17:53:10.806Z,21.20
2018-06-21T17:55:38.383Z,21.10
2018-06-21T17:58:06.072Z,21.00
2018-06-21T18:00:33.579Z,21.00
2018-06-21T18:03:01.121Z,20.90
2018-06-21T18:05:28.668Z,20.70
2018-06-21T18:07:56.224Z,20.70
2018-06-21T18:10:23.795Z,20.50
2018-06-21T18:12:51.345Z,20.40
2018-06-21T18:15:18.914Z,20.30
2018-06-21T18:17:46.491Z,20.20
2018-06-21T18:20:24.357Z,20.10
2018-06-21T18:22:51.943Z,20.10
2018-06-21T18:25:19.478Z,20.10
2018-06-21T18:27:47.089Z,20.10
2018-06-21T18:30:14.634Z,20.00
2018-06-21T18:32:42.215Z,19.90
2018-06-21T18:35:09.776Z,19.90
2018-06-21T18:37:37.362Z,19.80
2018-06-21T18:42:32.569Z,19.70
2018-06-21T18:45:00.164Z,19.60
2018-06-21T18:47:27.762Z,19.50
2018-06-21T18:49:55.321Z,19.60
2018-06-21T18:52:22.881Z,19.50
2018-06-21T18:54:50.406Z,19.50
2018-06-21T18:57:17.975Z,19.60
2018-06-21T18:59:45.552Z,19.60
2018-06-21T19:02:13.126Z,19.60
2018-06-21T19:04:40.634Z,19.60
2018-06-21T19:07:13.822Z,19.50
2018-06-21T19:09:47.166Z,19.50
2018-06-21T19:12:14.877Z,19.50
2018-06-21T19:14:42.459Z,19.40
2018-06-21T19:17:10.050Z,19.40
2018-06-21T19:19:38.368Z,19.40
2018-06-21T19:22:05.963Z,19.40
2018-06-21T19:24:33.545Z,19.30
2018-06-21T19:27:01.199Z,19.30
2018-06-21T19:29:28.797Z,19.20
2018-06-21T19:31:56.347Z,19.20
2018-06-21T19:34:23.862Z,19.10
2018-06-21T19:36:51.447Z,19.20
2018-06-21T19:39:18.995Z,19.10
2018-06-21T19:41:46.590Z,19.00
2018-06-21T19:44:14.112Z,18.90
2018-06-21T19:46:41.663Z,18.80
2018-06-21T19:49:09.207Z,18.70
2018-06-21T19:51:36.769Z,18.60
2018-06-21T19:54:04.393Z,18.50
2018-06-21T19:56:31.943Z,18.50
2018-06-21T19:58:59.531Z,18.50
2018-06-21T20:01:27.138Z,18.40
2018-06-21T20:03:54.762Z,18.40
2018-06-21T20:06:22.428Z,18.40
2018-06-21T20:08:50.108Z,18.30
2018-06-21T20:11:23.198Z,18.30
2018-06-21T20:13:51.679Z,18.40
2018-06-21T20:16:20.131Z,18.30
2018-06-21T20:18:47.931Z,18.30
2018-06-21T20:21:16.606Z,18.30
2018-06-21T20:23:46.090Z,18.30
2018-06-21T20:26:14.083Z,18.30
2018-06-21T20:28:42.019Z,18.40
2018-06-21T20:33:38.873Z,18.40
2018-06-21T20:38:33.967Z,18.10
2018-06-21T20:41:01.499Z,18.20
2018-06-21T20:43:29.200Z,18.00
2018-06-21T20:45:56.780Z,17.70
2018-06-21T20:48:24.349Z,17.70
2018-06-21T20:50:51.866Z,17.60
2018-06-21T20:53:19.437Z,17.60
2018-06-21T20:55:46.989Z,17.50
2018-06-21T20:58:14.545Z,17.60
2018-06-21T21:00:42.142Z,17.60
2018-06-21T21:03:09.892Z,17.60
2018-06-21T21:12:59.710Z,17.20
2018-06-21T21:15:27.247Z,17.00
2018-06-21T21:17:54.790Z,16.70
2018-06-21T21:20:22.316Z,16.50
2018-06-21T21:22:49.879Z,16.30
2018-06-21T21:25:17.390Z,16.30
2018-06-21T21:27:44.901Z,16.30
2018-06-21T21:30:12.379Z,16.20
2018-06-21T21:32:39.875Z,16.20
2018-06-21T21:35:07.390Z,16.20
2018-06-21T21:37:34.983Z,16.10
2018-06-21T21:40:04.565Z,16.00
2018-06-21T21:42:33.234Z,15.90
2018-06-21T21:45:00.706Z,15.90
2018-06-21T21:47:28.225Z,15.90
2018-06-21T21:49:55.884Z,15.80
2018-06-21T21:54:51.074Z,15.70
2018-06-21T21:57:18.771Z,15.70
2018-06-21T21:59:46.677Z,15.70
2018-06-21T22:02:14.600Z,15.70
2018-06-21T22:04:42.310Z,15.70
2018-06-21T22:07:09.791Z,15.70
2018-06-21T22:09:37.325Z,15.50
2018-06-21T22:12:05.016Z,15.40
2018-06-21T22:14:32.514Z,15.40
2018-06-21T22:17:00.060Z,15.40
2018-06-21T22:21:55.059Z,15.20
2018-06-21T22:24:22.608Z,15.30
2018-06-21T22:26:50.110Z,15.30
2018-06-21T22:29:17.623Z,15.20
2018-06-21T22:31:45.142Z,15.10
2018-06-21T22:34:12.631Z,15.10
2018-06-21T22:36:40.286Z,15.10
2018-06-21T22:39:10.058Z,14.90
2018-06-21T22:41:37.843Z,14.90
2018-06-21T22:44:05.394Z,14.80
2018-06-21T22:46:32.867Z,14.80
2018-06-21T22:49:00.344Z,14.80
2018-06-21T22:51:28.686Z,14.80
2018-06-21T22:53:56.207Z,14.70
2018-06-21T22:58:51.633Z,14.60
2018-06-21T23:01:19.211Z,14.60
2018-06-21T23:03:47.038Z,14.50
2018-06-21T23:06:16.359Z,14.40
2018-06-21T23:08:43.893Z,14.40
2018-06-21T23:11:11.431Z,14.30
2018-06-21T23:13:38.970Z,14.20
2018-06-21T23:16:06.625Z,14.30
2018-06-21T23:18:48.251Z,14.30
2018-06-21T23:21:15.794Z,14.20
2018-06-21T23:23:43.295Z,14.20
2018-06-21T23:26:11.431Z,14.10
2018-06-21T23:28:38.918Z,14.00
2018-06-21T23:31:06.505Z,14.00
2018-06-21T23:33:38.656Z,14.00
2018-06-21T23:38:38.620Z,13.80
2018-06-21T23:41:08.205Z,13.90
2018-06-21T23:46:11.724Z,13.70
2018-06-21T23:48:41.850Z,13.60
2018-06-21T23:51:13.547Z,13.50
2018-06-21T23:53:41.090Z,13.50
2018-06-21T23:56:08.597Z,13.50
2018-06-21T23:58:38.013Z,13.60
